Time;durP1;ratioP1;P1;durP2;ratioP2;P2;SDS_P1;SDS_P2;PMS_P1;PMS_P2;Temp;Humidity;BMP_temperature;BMP_pressure;BME280_temperature;BME280_humidity;BME280_pressure;Samples;Min_cycle;Max_cycle;Signal;HPM_P1;HPM_P2
2023/10/30 00:00:08;;;;;;;5.50;1.08;;;;;;;10.27;100.00;99610.59;5062962;28;20534;-93
2023/10/30 00:02:36;;;;;;;6.72;1.88;;;;;;;10.20;100.00;99613.41;5064650;28;20028;-93
2023/10/30 00:05:02;;;;;;;5.35;1.38;;;;;;;10.36;100.00;99630.56;5070637;28;20093;-93
2023/10/30 00:07:27;;;;;;;3.72;1.42;;;;;;;10.34;100.00;99627.38;5057336;28;20032;-93
2023/10/30 00:09:53;;;;;;;2.55;1.25;;;;;;;10.39;100.00;99632.53;5085720;28;20020;-93
2023/10/30 00:12:19;;;;;;;4.65;1.30;;;;;;;10.28;100.00;99638.13;5087762;28;20073;-93
2023/10/30 00:14:44;;;;;;;5.40;1.30;;;;;;;10.21;100.00;99613.00;5068499;28;20028;-93
2023/10/30 00:17:09;;;;;;;3.75;1.40;;;;;;;10.38;100.00;99630.94;5067836;28;20040;-93
2023/10/30 00:19:35;;;;;;;1.88;0.98;;;;;;;10.26;100.00;99623.75;5074025;28;20493;-93
2023/10/30 00:22:00;;;;;;;2.63;1.27;;;;;;;10.27;100.00;99646.94;5073211;28;20127;-93
2023/10/30 00:24:27;;;;;;;5.22;1.77;;;;;;;10.25;100.00;99652.94;5089397;28;20028;-93
2023/10/30 00:26:53;;;;;;;3.40;1.40;;;;;;;10.38;100.00;99648.50;5070674;28;20039;-93
2023/10/30 00:29:18;;;;;;;5.85;2.83;;;;;;;10.06;100.00;99631.06;5068994;28;20025;-93
2023/10/30 00:31:44;;;;;;;4.55;1.92;;;;;;;10.18;100.00;99625.00;5069511;28;20036;-93
2023/10/30 00:34:11;;;;;;;12.02;3.88;;;;;;;10.07;100.00;99632.63;5084844;28;20104;-93
2023/10/30 00:36:37;;;;;;;14.68;6.18;;;;;;;10.22;100.00;99653.75;5087272;28;20032;-93
2023/10/30 00:39:02;;;;;;;20.45;8.10;;;;;;;10.17;100.00;99651.38;5066152;28;20486;-93
2023/10/30 00:41:28;;;;;;;15.82;5.53;;;;;;;10.16;100.00;99658.97;5069900;28;20036;-93
2023/10/30 00:43:53;;;;;;;10.70;3.70;;;;;;;10.03;100.00;99651.41;5062559;28;20704;-93
2023/10/30 00:46:19;;;;;;;7.35;2.80;;;;;;;10.06;100.00;99673.00;5070214;28;20035;-93
2023/10/30 00:48:45;;;;;;;8.63;4.10;;;;;;;10.01;100.00;99648.22;5067941;28;20451;-93
2023/10/30 00:51:10;;;;;;;4.85;2.90;;;;;;;9.98;100.00;99647.03;5073242;28;20027;-93
2023/10/30 00:53:36;;;;;;;10.00;3.13;;;;;;;9.95;100.00;99654.25;5065368;28;20055;-93
2023/10/30 00:56:01;;;;;;;4.05;2.42;;;;;;;10.14;100.00;99666.97;5062733;28;20055;-92
2023/10/30 00:58:27;;;;;;;4.10;2.05;;;;;;;10.20;100.00;99672.91;5060167;28;20339;-92
2023/10/30 01:00:52;;;;;;;2.72;1.63;;;;;;;10.00;100.00;99661.41;5073754;28;20397;-92
2023/10/30 01:03:23;;;;;;;4.57;1.42;;;;;;;9.88;100.00;99654.25;5062690;28;20621;-92
2023/10/30 01:05:58;;;;;;;2.80;1.48;;;;;;;10.09;100.00;99677.75;5060545;28;20028;-93
2023/10/30 01:08:25;;;;;;;6.80;2.05;;;;;;;10.13;100.00;99670.16;5068143;28;20394;-92
2023/10/30 01:10:52;;;;;;;5.47;2.00;;;;;;;10.12;100.00;99676.97;5085499;28;20025;-92
2023/10/30 01:13:18;;;;;;;6.28;1.70;;;;;;;10.15;100.00;99653.78;5066975;28;20480;-93
2023/10/30 01:15:43;;;;;;;6.55;2.47;;;;;;;10.07;100.00;99674.56;5069179;28;20119;-92
2023/10/30 01:18:08;;;;;;;8.15;1.70;;;;;;;10.07;100.00;99686.53;5059340;28;20113;-92
2023/10/30 01:20:38;;;;;;;5.20;1.55;;;;;;;10.16;100.00;99688.91;5071837;28;20033;-92
2023/10/30 01:23:04;;;;;;;4.70;1.40;;;;;;;10.06;100.00;99678.59;5066013;28;20512;-93
2023/10/30 01:25:29;;;;;;;4.80;1.75;;;;;;;9.95;100.00;99682.19;5064743;28;20134;-92
2023/10/30 01:27:55;;;;;;;1.83;1.20;;;;;;;10.05;100.00;99716.91;5059999;28;20146;-92
2023/10/30 01:30:27;;;;;;;8.27;1.65;;;;;;;9.95;100.00;99704.56;5069621;28;20132;-92
2023/10/30 01:32:52;;;;;;;1.98;1.00;;;;;;;9.97;100.00;99713.34;5050017;28;20024;-93
2023/10/30 01:35:18;;;;;;;1.45;1.00;;;;;;;9.88;100.00;99689.78;5062873;28;20366;-92
2023/10/30 01:37:43;;;;;;;6.97;1.67;;;;;;;9.98;100.00;99703.75;5058938;28;20032;-92
2023/10/30 01:40:10;;;;;;;5.18;1.77;;;;;;;10.11;100.00;99717.28;5081004;28;20039;-92
2023/10/30 01:42:35;;;;;;;3.13;1.85;;;;;;;10.03;100.00;99712.91;5063111;28;20059;-92
2023/10/30 01:45:01;;;;;;;6.68;1.90;;;;;;;9.89;100.00;99692.19;5061911;28;20101;-92
2023/10/30 01:47:27;;;;;;;5.13;1.50;;;;;;;9.96;100.00;99720.13;5066174;28;20039;-92
2023/10/30 01:49:53;;;;;;;4.07;1.33;;;;;;;9.97;100.00;99726.50;5061584;28;20032;-91
2023/10/30 01:52:20;;;;;;;6.20;4.03;;;;;;;9.91;100.00;99709.34;5082820;28;20036;-92
2023/10/30 01:54:48;;;;;;;2.80;1.33;;;;;;;10.03;100.00;99724.09;5060357;28;20028;-92
2023/10/30 01:57:15;;;;;;;7.50;1.92;;;;;;;9.99;100.00;99718.50;5062308;28;20023;-92
2023/10/30 01:59:41;;;;;;;13.00;1.30;;;;;;;9.86;100.00;99703.38;5069818;28;20036;-92
2023/10/30 02:02:07;;;;;;;10.13;1.98;;;;;;;9.88;100.00;99724.13;5061275;28;20020;-92
2023/10/30 02:04:32;;;;;;;7.63;1.90;;;;;;;9.80;100.00;99691.78;5059275;28;20029;-92
2023/10/30 02:06:58;;;;;;;6.70;1.63;;;;;;;9.87;100.00;99705.78;5066870;28;20410;-92
2023/10/30 02:09:24;;;;;;;7.05;1.77;;;;;;;9.83;100.00;99707.78;5061882;28;20151;-92
2023/10/30 02:11:49;;;;;;;4.03;1.48;;;;;;;10.05;100.00;99732.88;5061559;28;20119;-92
2023/10/30 02:14:15;;;;;;;6.47;1.73;;;;;;;9.80;100.00;99716.94;5084257;28;20024;-91
2023/10/30 02:16:41;;;;;;;7.90;1.67;;;;;;;9.88;100.00;99735.31;5057506;28;20028;-92
2023/10/30 02:19:15;;;;;;;8.60;1.40;;;;;;;10.01;100.00;99737.69;5056652;28;20041;-92
2023/10/30 02:21:40;;;;;;;6.40;2.58;;;;;;;9.98;100.00;99728.91;5063690;28;20096;-92
2023/10/30 02:24:06;;;;;;;4.15;1.77;;;;;;;9.82;100.00;99720.13;5062425;28;20826;-92
2023/10/30 02:26:32;;;;;;;4.72;1.63;;;;;;;9.81;100.00;99721.34;5080451;28;20122;-92
2023/10/30 02:29:01;;;;;;;9.55;2.15;;;;;;;9.89;100.00;99724.94;5060046;28;20498;-91
2023/10/30 02:31:26;;;;;;;8.32;1.73;;;;;;;9.88;100.00;99729.72;5063109;28;20032;-92
2023/10/30 02:33:52;;;;;;;5.18;1.42;;;;;;;9.90;100.00;99718.13;5061380;28;20031;-92
2023/10/30 02:36:17;;;;;;;6.93;1.48;;;;;;;9.79;100.00;99722.94;5061275;28;20444;-92
2023/10/30 02:38:43;;;;;;;6.63;1.52;;;;;;;9.81;100.00;99712.19;5065305;28;20106;-92
2023/10/30 02:41:08;;;;;;;3.25;1.02;;;;;;;9.83;100.00;99721.75;5063633;28;20087;-93
2023/10/30 02:43:33;;;;;;;9.48;1.58;;;;;;;9.81;100.00;99723.34;5062721;28;20077;-92
2023/10/30 02:45:59;;;;;;;5.40;1.55;;;;;;;9.96;100.00;99736.09;5062723;28;20028;-92
2023/10/30 02:48:24;;;;;;;4.95;1.60;;;;;;;10.05;100.00;99744.88;5067356;28;20020;-92
2023/10/30 02:50:50;;;;;;;3.00;1.45;;;;;;;9.81;100.00;99729.72;5080003;28;20086;-92
2023/10/30 02:53:15;;;;;;;9.57;1.92;;;;;;;9.97;100.00;99744.09;5061683;28;20454;-93
2023/10/30 02:55:41;;;;;;;8.63;1.80;;;;;;;9.90;100.00;99754.47;5079078;28;20546;-93
2023/10/30 02:58:06;;;;;;;3.65;1.23;;;;;;;9.83;100.00;99744.09;5063439;28;20137;-93
2023/10/30 03:00:31;;;;;;;7.05;1.83;;;;;;;9.72;100.00;99732.94;5063019;28;20055;-94
2023/10/30 03:02:57;;;;;;;5.32;1.48;;;;;;;9.93;100.00;99759.28;5055710;28;22459;-93
2023/10/30 03:05:22;;;;;;;9.77;2.05;;;;;;;9.85;100.00;99736.13;5077569;28;20031;-93
2023/10/30 03:07:48;;;;;;;5.82;1.67;;;;;;;9.91;100.00;99740.09;5055628;28;20165;-94
2023/10/30 03:10:13;;;;;;;6.55;1.58;;;;;;;9.75;100.00;99734.13;5057627;28;20024;-94
2023/10/30 03:12:39;;;;;;;5.40;1.27;;;;;;;9.63;100.00;99723.34;5058416;28;20028;-94
2023/10/30 03:15:05;;;;;;;5.18;1.40;;;;;;;9.71;100.00;99736.13;5064323;28;20744;-93
2023/10/30 03:17:30;;;;;;;6.25;1.95;;;;;;;9.84;100.00;99764.47;5065821;28;20044;-93
2023/10/30 03:19:55;;;;;;;6.30;1.80;;;;;;;9.89;100.00;99752.91;5080333;28;20501;-94
2023/10/30 03:22:23;;;;;;;4.75;2.15;;;;;;;9.88;100.00;99760.47;5078589;28;20020;-92
2023/10/30 03:24:48;;;;;;;5.57;1.67;;;;;;;9.77;100.00;99742.91;5061490;28;20063;-93
2023/10/30 03:27:13;;;;;;;5.85;1.48;;;;;;;9.80;100.00;99744.09;5059979;28;20062;-93
2023/10/30 03:29:40;;;;;;;4.85;1.60;;;;;;;9.60;100.00;99732.53;5055743;28;20028;-93
2023/10/30 03:32:05;;;;;;;7.75;1.55;;;;;;;9.60;100.00;99741.72;5058982;28;20047;-94
2023/10/30 03:34:31;;;;;;;5.75;1.63;;;;;;;9.63;100.00;99731.72;5055639;28;20048;-93
2023/10/30 03:36:56;;;;;;;12.45;2.08;;;;;;;9.62;100.00;99738.53;5060456;28;20456;-92
2023/10/30 03:39:21;;;;;;;5.70;1.65;;;;;;;9.78;100.00;99764.06;5060340;28;20036;-94
2023/10/30 03:41:47;;;;;;;6.28;1.45;;;;;;;9.79;100.00;99751.69;5060242;28;20024;-93
2023/10/30 03:44:12;;;;;;;6.50;1.75;;;;;;;9.72;100.00;99748.91;5058149;28;20043;-92
2023/10/30 03:46:38;;;;;;;5.30;1.60;;;;;;;9.75;100.00;99745.31;5062669;28;20059;-93
2023/10/30 03:49:03;;;;;;;6.22;1.50;;;;;;;9.75;100.00;99731.34;5059012;28;20024;-93
2023/10/30 03:51:29;;;;;;;3.58;1.45;;;;;;;9.87;100.00;99766.47;5058175;28;20059;-93
2023/10/30 03:53:54;;;;;;;4.97;1.73;;;;;;;9.89;100.00;99764.88;5077900;28;21181;-93
2023/10/30 03:56:19;;;;;;;6.13;1.42;;;;;;;9.92;100.00;99761.25;5064293;28;20119;-94
2023/10/30 03:58:45;;;;;;;4.05;1.55;;;;;;;9.82;100.00;99747.28;5057436;28;20016;-94
2023/10/30 04:01:10;;;;;;;4.25;1.33;;;;;;;9.74;100.00;99760.50;5064557;28;20518;-94
2023/10/30 04:03:36;;;;;;;4.88;1.63;;;;;;;9.77;100.00;99770.84;5054842;28;20115;-94
2023/10/30 04:06:03;;;;;;;7.95;1.45;;;;;;;9.65;100.00;99741.31;5058603;28;20032;-93
2023/10/30 04:08:28;;;;;;;5.20;1.77;;;;;;;9.69;100.00;99744.09;5065073;28;20050;-93
2023/10/30 04:10:54;;;;;;;14.50;2.45;;;;;;;9.67;100.00;99750.09;5063457;28;20478;-94
2023/10/30 04:13:19;;;;;;;14.00;2.53;;;;;;;9.72;100.00;99748.91;5061361;28;20133;-93
2023/10/30 04:15:46;;;;;;;4.30;1.60;;;;;;;9.62;100.00;99741.31;5065255;28;20099;-95
2023/10/30 04:18:11;;;;;;;6.00;1.25;;;;;;;9.76;100.00;99758.06;5076798;28;20044;-94
2023/10/30 04:20:37;;;;;;;4.15;1.25;;;;;;;9.92;100.00;99768.84;5055925;28;20097;-94
2023/10/30 04:23:02;;;;;;;5.97;1.05;;;;;;;9.80;100.00;99747.69;5076487;28;20115;-93
2023/10/30 04:25:28;;;;;;;8.63;1.33;;;;;;;9.77;100.00;99751.28;5056625;28;20032;-93
2023/10/30 04:27:53;;;;;;;6.15;1.80;;;;;;;9.75;100.00;99742.50;5077601;28;20478;-93
2023/10/30 04:30:19;;;;;;;4.38;1.63;;;;;;;9.88;100.00;99768.06;5054546;28;20075;-94
2023/10/30 04:32:45;;;;;;;8.18;1.23;;;;;;;9.89;100.00;99773.25;5059847;28;20145;-94
2023/10/30 04:35:10;;;;;;;10.68;2.55;;;;;;;9.66;100.00;99744.91;5058167;28;20027;-94
2023/10/30 04:37:36;;;;;;;7.25;1.85;;;;;;;9.61;100.00;99734.13;5059969;28;20032;-92
2023/10/30 04:40:01;;;;;;;7.40;1.60;;;;;;;9.67;100.00;99724.94;5054571;28;20086;-93
2023/10/30 04:42:28;;;;;;;5.88;1.45;;;;;;;9.72;100.00;99729.34;5057999;28;20028;-93
2023/10/30 04:44:55;;;;;;;5.75;1.48;;;;;;;9.86;100.00;99740.50;5055395;28;20514;-93
2023/10/30 04:47:20;;;;;;;8.90;1.60;;;;;;;9.70;100.00;99707.38;5057662;28;20024;-94
2023/10/30 04:49:46;;;;;;;8.32;1.70;;;;;;;9.88;100.00;99740.09;5061888;28;20020;-93
2023/10/30 04:52:11;;;;;;;8.80;2.40;;;;;;;9.77;100.00;99732.53;5056817;28;20129;-93
2023/10/30 04:54:37;;;;;;;6.22;1.40;;;;;;;9.76;100.00;99735.72;5061833;28;20370;-94
2023/10/30 04:57:03;;;;;;;4.72;0.98;;;;;;;9.80;100.00;99733.72;5057061;28;20027;-92
2023/10/30 04:59:28;;;;;;;8.73;2.08;;;;;;;9.81;100.00;99743.72;5062016;28;20061;-93
2023/10/30 05:01:54;;;;;;;6.13;1.55;;;;;;;9.70;100.00;99732.53;5061473;28;20492;-94
2023/10/30 05:04:19;;;;;;;7.43;1.60;;;;;;;9.76;100.00;99735.72;5063248;28;20065;-93
2023/10/30 05:06:48;;;;;;;7.35;1.15;;;;;;;9.69;100.00;99738.53;5080294;28;20032;-93
2023/10/30 05:09:13;;;;;;;6.13;1.77;;;;;;;9.68;100.00;99742.53;5061907;28;20031;-92
2023/10/30 05:11:39;;;;;;;7.13;1.90;;;;;;;9.70;100.00;99763.28;5083883;28;20512;-93
2023/10/30 05:14:05;;;;;;;4.07;1.77;;;;;;;9.59;100.00;99740.09;5061537;28;20036;-92
2023/10/30 05:16:31;;;;;;;3.05;1.27;;;;;;;9.63;100.00;99734.53;5063769;28;20601;-93
2023/10/30 05:18:57;;;;;;;7.45;1.52;;;;;;;9.69;100.00;99747.69;5081504;28;20197;-94
2023/10/30 05:21:23;;;;;;;10.25;1.83;;;;;;;9.70;100.00;99745.72;5061556;28;20028;-94
2023/10/30 05:23:49;;;;;;;6.60;1.70;;;;;;;9.59;100.00;99756.06;5060640;28;20562;-92
2023/10/30 05:26:15;;;;;;;5.95;1.60;;;;;;;9.64;100.00;99750.09;5065948;28;20511;-93
2023/10/30 05:28:40;;;;;;;10.10;1.80;;;;;;;9.56;100.00;99758.47;5066769;28;20028;-93
2023/10/30 05:31:06;;;;;;;5.85;1.27;;;;;;;9.57;100.00;99764.84;5061271;28;20022;-93
2023/10/30 05:33:32;;;;;;;7.55;1.42;;;;;;;9.35;100.00;99741.69;5064249;28;20500;-93
2023/10/30 05:35:58;;;;;;;11.25;1.95;;;;;;;9.46;100.00;99748.09;5067793;28;20589;-93
2023/10/30 05:38:23;;;;;;;6.88;1.50;;;;;;;9.65;100.00;99772.03;5059437;28;20177;-93
2023/10/30 05:40:49;;;;;;;6.18;1.75;;;;;;;9.59;100.00;99778.44;5071264;28;20035;-93
2023/10/30 05:43:14;;;;;;;11.32;1.77;;;;;;;9.60;100.00;99786.41;5072168;28;20024;-94
2023/10/30 05:45:39;;;;;;;13.60;2.88;;;;;;;9.54;100.00;99776.84;5065754;28;20121;-93
2023/10/30 05:48:05;;;;;;;7.30;1.70;;;;;;;9.56;100.00;99780.03;5063265;28;20039;-92
2023/10/30 05:50:30;;;;;;;12.23;2.28;;;;;;;9.54;100.00;99765.66;5068277;28;20035;-93
2023/10/30 05:52:56;;;;;;;6.38;2.78;;;;;;;9.47;100.00;99772.03;5061137;28;20394;-94
2023/10/30 05:55:21;;;;;;;7.00;2.47;;;;;;;9.45;100.00;99757.69;5061357;28;20036;-93
2023/10/30 05:57:47;;;;;;;4.55;1.95;;;;;;;9.51;100.00;99758.88;5053925;28;20029;-92
2023/10/30 06:00:14;;;;;;;7.00;1.45;;;;;;;9.36;100.00;99744.09;5058174;28;20482;-93
2023/10/30 06:02:39;;;;;;;5.13;2.28;;;;;;;9.41;100.00;99754.06;5059836;28;20047;-93
2023/10/30 06:05:07;;;;;;;4.57;2.00;;;;;;;9.48;100.00;99787.59;5062786;28;20485;-93
2023/10/30 06:07:34;;;;;;;8.95;3.70;;;;;;;9.46;100.00;99762.06;5079581;28;20035;-93
2023/10/30 06:10:04;;;;;;;3.97;2.40;;;;;;;9.45;100.00;99768.84;5056953;28;20393;-92
2023/10/30 06:12:30;;;;;;;4.85;1.98;;;;;;;9.57;100.00;99782.44;5059264;28;20386;-93
2023/10/30 06:14:55;;;;;;;5.15;2.28;;;;;;;9.62;100.00;99781.22;5057358;28;20031;-94
2023/10/30 06:17:21;;;;;;;6.70;1.45;;;;;;;9.59;100.00;99773.63;5057957;28;20505;-94
2023/10/30 06:19:46;;;;;;;8.32;1.92;;;;;;;9.38;100.00;99768.81;5052352;28;20480;-93
2023/10/30 06:22:12;;;;;;;4.90;1.70;;;;;;;9.40;100.00;99787.97;5078938;28;20533;-94
2023/10/30 06:24:37;;;;;;;4.45;1.55;;;;;;;9.32;100.00;99784.41;5060436;28;20016;-94
2023/10/30 06:27:03;;;;;;;12.98;1.88;;;;;;;9.56;100.00;99803.16;5057549;28;20119;-93
2023/10/30 06:29:28;;;;;;;6.70;2.00;;;;;;;9.51;100.00;99778.44;5059471;28;20038;-93
2023/10/30 06:31:54;;;;;;;6.72;1.38;;;;;;;9.41;100.00;99784.00;5059363;28;20019;-92
2023/10/30 06:34:20;;;;;;;9.40;1.73;;;;;;;9.45;100.00;99802.38;5060239;28;20036;-93
2023/10/30 06:36:46;;;;;;;6.22;2.30;;;;;;;9.50;100.00;99799.16;5078916;28;20531;-92
2023/10/30 06:39:13;;;;;;;3.72;1.40;;;;;;;9.39;100.00;99803.16;5059151;28;20024;-92
2023/10/30 06:41:38;;;;;;;6.72;2.10;;;;;;;9.41;100.00;99790.38;5057041;28;20044;-93
2023/10/30 06:44:04;;;;;;;4.68;1.38;;;;;;;9.49;100.00;99813.56;5061545;28;20074;-93
2023/10/30 06:46:29;;;;;;;8.30;1.40;;;;;;;9.44;100.00;99806.34;5053920;28;20162;-92
2023/10/30 06:48:55;;;;;;;5.28;1.45;;;;;;;9.37;100.00;99806.34;5057616;28;20123;-93
2023/10/30 06:51:20;;;;;;;5.13;1.67;;;;;;;9.36;100.00;99793.59;5058196;28;20212;-95
2023/10/30 06:53:46;;;;;;;6.40;1.83;;;;;;;9.54;100.00;99811.16;5060807;28;20039;-93
2023/10/30 06:56:11;;;;;;;5.78;2.05;;;;;;;9.42;100.00;99802.34;5057468;28;20473;-93
2023/10/30 06:58:36;;;;;;;6.80;2.25;;;;;;;9.32;100.00;99781.59;5054815;28;20034;-92
2023/10/30 07:01:03;;;;;;;10.70;3.20;;;;;;;9.44;100.00;99806.34;5057660;28;20077;-92
2023/10/30 07:03:29;;;;;;;5.75;1.40;;;;;;;9.37;100.00;99800.75;5056610;28;20135;-92
2023/10/30 07:05:54;;;;;;;6.53;1.63;;;;;;;9.59;100.00;99835.09;5056892;28;20118;-92
2023/10/30 07:08:19;;;;;;;3.35;1.83;;;;;;;9.47;100.00;99810.34;5071031;28;20038;-93
2023/10/30 07:10:45;;;;;;;8.05;2.22;;;;;;;9.53;100.00;99834.72;5054634;28;21221;-92
2023/10/30 07:13:10;;;;;;;5.55;1.55;;;;;;;9.51;100.00;99834.31;5081698;28;20024;-92
2023/10/30 07:15:35;;;;;;;6.38;1.45;;;;;;;9.84;100.00;99851.09;5057270;28;20052;-84
2023/10/30 07:18:01;;;;;;;7.68;2.45;;;;;;;9.50;100.00;99824.31;5059162;28;20098;-88
2023/10/30 07:20:26;;;;;;;8.68;2.65;;;;;;;9.55;100.00;99835.09;5059423;28;20028;-88
2023/10/30 07:22:52;;;;;;;8.90;2.10;;;;;;;9.63;100.00;99865.84;5063565;28;20496;-89
2023/10/30 07:25:17;;;;;;;7.47;2.05;;;;;;;9.75;100.00;99865.47;5078696;28;20024;-87
2023/10/30 07:27:42;;;;;;;5.28;1.80;;;;;;;9.71;100.00;99859.06;5059805;28;20028;-89
2023/10/30 07:30:08;;;;;;;4.47;2.10;;;;;;;9.69;100.00;99867.06;5057705;28;20051;-88
2023/10/30 07:32:34;;;;;;;4.30;1.60;;;;;;;9.89;100.00;99862.69;5066992;28;20032;-90
2023/10/30 07:35:00;;;;;;;4.10;1.77;;;;;;;9.69;100.00;99847.50;5063814;28;20039;-91
2023/10/30 07:37:25;;;;;;;4.18;1.42;;;;;;;9.76;100.00;99856.69;5062879;28;20118;-91
2023/10/30 07:39:51;;;;;;;6.28;1.70;;;;;;;9.73;100.00;99846.28;5069901;28;20028;-91
2023/10/30 07:42:16;;;;;;;6.82;1.90;;;;;;;9.73;100.00;99856.69;5060181;28;20036;-91
2023/10/30 07:44:41;;;;;;;7.93;1.55;;;;;;;9.77;100.00;99863.06;5082237;28;20043;-90
2023/10/30 07:47:07;;;;;;;2.85;1.73;;;;;;;9.70;100.00;99871.47;5072947;23;20083;-75
2023/10/30 07:49:32;;;;;;;9.48;2.95;;;;;;;9.75;100.00;99871.06;5057793;28;20047;-74
2023/10/30 07:51:57;;;;;;;8.95;2.78;;;;;;;9.73;100.00;99873.44;5049851;28;20382;-73
2023/10/30 07:54:23;;;;;;;7.55;1.75;;;;;;;9.79;100.00;99866.28;5055029;28;20164;-73
2023/10/30 07:56:49;;;;;;;6.70;2.15;;;;;;;9.79;100.00;99876.66;5057413;28;20105;-74
2023/10/30 07:59:14;;;;;;;6.75;1.90;;;;;;;9.80;100.00;99867.06;5059285;28;20032;-76
2023/10/30 08:01:40;;;;;;;5.32;2.30;;;;;;;9.83;100.00;99861.50;5056283;28;20041;-74
2023/10/30 08:04:06;;;;;;;7.43;1.92;;;;;;;9.86;100.00;99857.88;5057655;28;20025;-74
2023/10/30 08:06:32;;;;;;;8.50;2.10;;;;;;;9.88;100.00;99861.09;5059520;28;20040;-73
2023/10/30 08:08:57;;;;;;;12.27;2.33;;;;;;;9.94;100.00;99879.06;5059918;28;21022;-74
2023/10/30 08:11:23;;;;;;;5.75;2.15;;;;;;;10.00;100.00;99887.84;5052178;28;20114;-73
2023/10/30 08:13:48;;;;;;;8.65;3.83;;;;;;;10.08;100.00;99894.25;5061068;28;20534;-72
2023/10/30 08:16:13;;;;;;;11.65;3.70;;;;;;;10.10;100.00;99891.88;5041735;28;20052;-73
2023/10/30 08:18:39;;;;;;;7.70;2.53;;;;;;;10.15;100.00;99888.66;5039261;28;20068;-73
2023/10/30 08:21:05;;;;;;;8.10;2.42;;;;;;;10.14;100.00;99892.66;5047401;28;20024;-74
2023/10/30 08:23:30;;;;;;;15.98;2.92;;;;;;;10.22;100.00;99901.84;5042924;28;20131;-73
2023/10/30 08:25:56;;;;;;;10.70;1.92;;;;;;;10.24;100.00;99886.25;5031896;28;20374;-74
2023/10/30 08:28:22;;;;;;;6.07;1.50;;;;;;;10.30;100.00;99890.28;5037797;28;20048;-74
2023/10/30 08:30:47;;;;;;;8.82;2.30;;;;;;;10.35;100.00;99894.66;5038380;28;20108;-76
2023/10/30 08:33:13;;;;;;;7.38;1.80;;;;;;;10.40;100.00;99893.50;5037981;28;20045;-75
2023/10/30 08:35:39;;;;;;;10.77;2.95;;;;;;;10.45;100.00;99901.47;5038001;28;20041;-74
2023/10/30 08:38:04;;;;;;;10.57;2.28;;;;;;;10.42;100.00;99907.88;5046933;28;20402;-75
2023/10/30 08:40:30;;;;;;;11.82;2.78;;;;;;;10.44;100.00;99906.28;5040819;28;20032;-73
2023/10/30 08:42:55;;;;;;;11.00;1.80;;;;;;;10.50;100.00;99892.69;5042418;28;20405;-73
2023/10/30 08:45:22;;;;;;;10.65;2.67;;;;;;;10.50;100.00;99890.69;5041725;28;20711;-74
2023/10/30 08:47:47;;;;;;;6.32;1.73;;;;;;;10.65;100.00;99894.25;5053250;28;20055;-73
2023/10/30 08:50:13;;;;;;;14.02;2.55;;;;;;;10.76;100.00;99889.41;5045033;28;20501;-74
2023/10/30 08:52:39;;;;;;;7.15;2.08;;;;;;;10.88;100.00;99884.59;5033602;28;20036;-74
2023/10/30 08:55:05;;;;;;;9.75;2.30;;;;;;;10.94;100.00;99885.78;5064101;28;20025;-75
2023/10/30 08:57:30;;;;;;;19.83;3.38;;;;;;;10.99;100.00;99874.97;5063871;28;20574;-75
2023/10/30 08:59:55;;;;;;;4.40;1.25;;;;;;;10.95;100.00;99878.97;5064673;28;20060;-76
2023/10/30 09:02:21;;;;;;;9.25;2.70;;;;;;;11.10;100.00;99874.91;5059182;28;20116;-75
2023/10/30 09:04:46;;;;;;;9.25;2.67;;;;;;;11.07;100.00;99881.34;5055211;28;20100;-74
2023/10/30 09:07:12;;;;;;;7.47;2.72;;;;;;;11.04;100.00;99884.94;5066388;28;20021;-74
2023/10/30 09:09:37;;;;;;;9.43;3.17;;;;;;;11.04;100.00;99882.13;5064239;28;20119;-75
2023/10/30 09:12:02;;;;;;;6.30;2.13;;;;;;;11.06;100.00;99888.13;5055355;28;20031;-75
2023/10/30 09:14:28;;;;;;;6.50;1.90;;;;;;;11.05;100.00;99892.16;5056489;28;20035;-76
2023/10/30 09:16:53;;;;;;;8.48;2.92;;;;;;;11.03;100.00;99891.75;5047707;28;20083;-75
2023/10/30 09:19:19;;;;;;;8.18;1.80;;;;;;;11.01;100.00;99888.56;5065401;28;20021;-76
2023/10/30 09:21:44;;;;;;;8.50;1.92;;;;;;;10.99;100.00;99885.38;5064886;28;20100;-76
2023/10/30 09:24:10;;;;;;;5.68;1.40;;;;;;;10.99;100.00;99890.97;5058140;28;20017;-76
2023/10/30 09:26:35;;;;;;;6.32;1.77;;;;;;;10.96;100.00;99891.75;5064714;28;20068;-75
2023/10/30 09:29:00;;;;;;;7.53;1.98;;;;;;;10.95;100.00;99884.59;5067316;28;20122;-76
2023/10/30 09:31:30;;;;;;;9.32;1.58;;;;;;;11.00;100.00;99881.34;5067199;28;20412;-76
2023/10/30 09:33:56;;;;;;;5.15;1.65;;;;;;;11.02;100.00;99889.34;5053535;28;20108;-76
2023/10/30 09:36:21;;;;;;;12.38;2.83;;;;;;;11.05;100.00;99889.34;5064475;28;20181;-74
2023/10/30 09:38:47;;;;;;;6.32;1.83;;;;;;;11.11;100.00;99887.72;5064860;28;20037;-73
2023/10/30 09:41:16;;;;;;;7.78;1.98;;;;;;;11.10;100.00;99888.13;5066313;28;20035;-74
2023/10/30 09:43:42;;;;;;;5.90;1.67;;;;;;;11.18;100.00;99882.09;5058551;28;20027;-73
2023/10/30 09:46:10;;;;;;;9.32;2.40;;;;;;;11.18;100.00;99886.91;5059589;28;20580;-74
2023/10/30 09:48:36;;;;;;;10.10;2.58;;;;;;;11.23;100.00;99885.69;5043146;28;20057;-74
2023/10/30 09:51:03;;;;;;;7.50;2.38;;;;;;;11.33;100.00;99882.03;5042352;28;20037;-74
2023/10/30 09:53:30;;;;;;;8.82;2.17;;;;;;;11.39;100.00;99878.41;5043606;28;20029;-73
2023/10/30 09:55:56;;;;;;;6.20;1.85;;;;;;;11.35;100.00;99876.81;5040376;28;20029;-74
2023/10/30 09:58:23;;;;;;;8.55;2.95;;;;;;;11.48;100.00;99888.38;5043935;28;20473;-74
2023/10/30 10:00:48;;;;;;;5.28;1.90;;;;;;;11.45;100.00;99891.97;5042491;28;20037;-74
2023/10/30 10:03:14;;;;;;;8.38;1.73;;;;;;;11.51;100.00;99891.16;5043049;28;20033;-74
2023/10/30 10:05:40;;;;;;;12.32;2.13;;;;;;;11.53;100.00;99899.13;5048375;28;20183;-74
2023/10/30 10:08:05;;;;;;;6.50;2.83;;;;;;;11.53;100.00;99913.97;5040165;28;20533;-74
2023/10/30 10:10:54;;;;;;;7.88;2.58;;;;;;;11.57;100.00;99902.72;5039043;28;20087;-74
2023/10/30 10:13:20;;;;;;;10.30;2.00;;;;;;;11.68;100.00;99899.84;5043199;28;20390;-73
2023/10/30 10:15:45;;;;;;;7.80;2.33;;;;;;;11.79;100.00;99909.00;5042489;28;20079;-73
2023/10/30 10:18:28;;;;;;;5.35;1.60;;;;;;;11.78;100.00;99907.41;5039091;28;20029;-75
2023/10/30 10:21:03;;;;;;;12.13;2.13;;;;;;;11.90;100.00;99897.75;5041572;28;20032;-75
2023/10/30 10:23:36;;;;;;;7.57;1.67;;;;;;;11.95;100.00;99900.13;5040830;28;20032;-75
2023/10/30 10:26:03;;;;;;;9.32;1.73;;;;;;;12.03;100.00;99901.66;5041477;28;20018;-74
2023/10/30 10:28:29;;;;;;;8.23;3.20;;;;;;;11.87;100.00;99904.13;5041338;28;20102;-75
2023/10/30 10:30:55;;;;;;;9.13;3.33;;;;;;;11.93;100.00;99897.75;5038274;28;20033;-75
2023/10/30 10:33:27;;;;;;;10.07;2.67;;;;;;;11.97;100.00;99895.72;5035949;28;20406;-74
2023/10/30 10:36:01;;;;;;;9.02;1.95;;;;;;;11.89;100.00;99901.75;5042195;28;20079;-75
2023/10/30 10:38:27;;;;;;;13.32;2.60;;;;;;;11.98;100.00;99893.69;5034587;28;20017;-74
2023/10/30 10:40:52;;;;;;;4.97;1.85;;;;;;;12.07;100.00;99896.03;5038900;28;20037;-76
2023/10/30 10:43:20;;;;;;;7.90;2.80;;;;;;;11.99;100.00;99893.28;5041558;28;20109;-75
2023/10/30 10:45:50;;;;;;;6.07;2.83;;;;;;;12.07;100.00;99894.03;5041004;28;20028;-75
2023/10/30 10:48:16;;;;;;;9.82;3.47;;;;;;;12.11;100.00;99891.19;5054541;28;20097;-75
2023/10/30 10:50:43;;;;;;;8.38;2.42;;;;;;;12.18;100.00;99889.16;5065077;28;20032;-76
2023/10/30 10:53:10;;;;;;;7.38;2.10;;;;;;;12.24;100.00;99886.66;5061462;28;20040;-75
2023/10/30 10:55:41;;;;;;;7.82;1.63;;;;;;;12.28;100.00;99881.81;5044384;28;20032;-76
2023/10/30 10:58:12;;;;;;;6.45;2.15;;;;;;;12.27;100.00;99877.44;5056628;28;20909;-76
2023/10/30 11:00:45;;;;;;;10.77;2.35;;;;;;;12.29;100.00;99869.41;5053460;28;20079;-76
2023/10/30 11:03:10;;;;;;;;;;;;;;;12.35;100.00;99859.34;5060787;28;20435;-74
2023/10/30 11:05:37;;;;;;;2.95;1.50;;;;;;;12.56;100.00;99860.31;5064524;28;19912;-77
2023/10/30 11:08:08;;;;;;;6.18;1.73;;;;;;;12.55;100.00;99853.13;5064630;28;20122;-77
2023/10/30 11:10:39;;;;;;;9.30;2.95;;;;;;;12.72;100.00;99856.97;5063114;28;20032;-77
2023/10/30 11:13:51;;;;;;;9.32;2.75;;;;;;;12.70;100.00;99856.59;5061234;28;20119;-77
2023/10/30 11:16:43;;;;;;;6.88;3.25;;;;;;;12.76;100.00;99852.91;5011855;28;20033;-77
2023/10/30 11:19:09;;;;;;;8.32;2.78;;;;;;;12.68;100.00;99844.97;5056401;28;20056;-77
2023/10/30 11:21:35;;;;;;;10.23;2.42;;;;;;;12.88;100.00;99836.72;5056385;28;20040;-77
2023/10/30 11:24:00;;;;;;;8.60;1.92;;;;;;;12.96;100.00;99841.03;5046729;28;20508;-77